地図

経路データ

SID SEASON NUMBER BASIN SUBBASIN NAME ISO_TIME NATURE LAT LON WMO_WIND WMO_PRES WMO_AGENCY TRACK_TYPE DIST2LAND LANDFALL IFLAG USA_AGENCY USA_ATCF_ID USA_LAT USA_LON USA_RECORD USA_STATUS USA_WIND USA_PRES USA_SSHS USA_R34_NE USA_R34_SE USA_R34_SW USA_R34_NW USA_R50_NE USA_R50_SE USA_R50_SW USA_R50_NW USA_R64_NE USA_R64_SE USA_R64_SW USA_R64_NW USA_POCI USA_ROCI USA_RMW USA_EYE TOKYO_LAT TOKYO_LON TOKYO_GRADE TOKYO_WIND TOKYO_PRES TOKYO_R50_DIR TOKYO_R50_LONG TOKYO_R50_SHORT TOKYO_R30_DIR TOKYO_R30_LONG TOKYO_R30_SHORT TOKYO_LAND CMA_LAT CMA_LON CMA_CAT CMA_WIND CMA_PRES HKO_LAT HKO_LON HKO_CAT HKO_WIND HKO_PRES NEWDELHI_LAT NEWDELHI_LON NEWDELHI_GRADE NEWDELHI_WIND NEWDELHI_PRES NEWDELHI_CI NEWDELHI_DP NEWDELHI_POCI REUNION_LAT REUNION_LON REUNION_TYPE REUNION_WIND REUNION_PRES REUNION_TNUM REUNION_CI REUNION_RMW REUNION_R34_NE REUNION_R34_SE REUNION_R34_SW REUNION_R34_NW REUNION_R50_NE REUNION_R50_SE REUNION_R50_SW REUNION_R50_NW REUNION_R64_NE REUNION_R64_SE REUNION_R64_SW REUNION_R64_NW BOM_LAT BOM_LON BOM_TYPE BOM_WIND BOM_PRES BOM_TNUM BOM_CI BOM_RMW BOM_R34_NE BOM_R34_SE BOM_R34_SW BOM_R34_NW BOM_R50_NE BOM_R50_SE BOM_R50_SW BOM_R50_NW BOM_R64_NE BOM_R64_SE BOM_R64_SW BOM_R64_NW BOM_ROCI BOM_POCI BOM_EYE BOM_POS_METHOD BOM_PRES_METHOD NADI_LAT NADI_LON NADI_CAT NADI_WIND NADI_PRES WELLINGTON_LAT WELLINGTON_LON WELLINGTON_WIND WELLINGTON_PRES DS824_LAT DS824_LON DS824_STAGE DS824_WIND DS824_PRES TD9636_LAT TD9636_LON TD9636_STAGE TD9636_WIND TD9636_PRES TD9635_LAT TD9635_LON TD9635_WIND TD9635_PRES TD9635_ROCI NEUMANN_LAT NEUMANN_LON NEUMANN_CLASS NEUMANN_WIND NEUMANN_PRES MLC_LAT MLC_LON MLC_CLASS MLC_WIND MLC_PRES USA_GUST BOM_GUST BOM_GUST_PER REUNION_GUST REUNION_GUST_PER USA_SEAHGT USA_SEARAD_NE USA_SEARAD_SE USA_SEARAD_SW USA_SEARAD_NW STORM_SPEED STORM_DIR
1977177N13251 1977 47 EP MM BERNICE 1977-06-25 12:00:00 TS 13.0000 -109.000 25 hurdat_epa main 826 819 O________O____ hurdat_epa EP021977 13.0000 -109.000 TD 25 -1 13.0000 -109.000 TC 25 11 307
1977177N13251 1977 47 EP MM BERNICE 1977-06-25 15:00:00 TS 13.3135 -109.431 main 822 820 P________PO___ EP021977 13.3527 -109.485 TD 25 -1 13.3527 -109.485 TC 25 13.0000 -109.000 1 30 12 306
1977177N13251 1977 47 EP MM BERNICE 1977-06-25 18:00:00 TS 13.6711 -109.963 25 hurdat_epa main 828 827 O________OP___ hurdat_epa EP021977 13.7000 -110.000 TD 25 -1 13.7000 -110.000 TC 25 13.4977 -109.738 1 30 13 303
1977177N13251 1977 47 EP MM BERNICE 1977-06-25 21:00:00 TS 14.0167 -110.555 main 848 840 P________PP___ EP021977 14.0298 -110.570 TD 25 -1 14.0298 -110.570 TC 25 13.9466 -110.473 1 30 14 298
1977177N13251 1977 47 EP MM BERNICE 1977-06-26 00:00:00 TS 14.3000 -111.200 25 hurdat_epa main 870 870 O________OO___ hurdat_epa EP021977 14.3000 -111.200 TD 25 -1 14.3000 -111.200 TC 25 14.3000 -111.200 1 30 14 290
1977177N13251 1977 47 EP MM BERNICE 1977-06-26 03:00:00 TS 14.4779 -111.891 main 911 911 P________PP___ EP021977 14.4649 -111.885 TD 25 -1 14.4649 -111.885 TC 25 14.5297 -111.913 1 31 14 283
1977177N13251 1977 47 EP MM BERNICE 1977-06-26 06:00:00 TS 14.6162 -112.603 25 hurdat_epa main 962 962 O________OP___ hurdat_epa EP021977 14.6000 -112.600 TD 25 -1 14.6000 -112.600 TC 25 14.6808 -112.615 1 32 14 283
1977177N13251 1977 47 EP MM BERNICE 1977-06-26 09:00:00 TS 14.7848 -113.272 main 970 967 P________PP___ EP021977 14.7769 -113.263 TD 30 -1 14.7769 -113.263 TC 30 14.8165 -113.308 1 33 14 286
1977177N13251 1977 47 EP MM BERNICE 1977-06-26 12:00:00 TS 15.0000 -114.000 35 hurdat_epa main 978 977 O________OO___ hurdat_epa EP021977 15.0000 -114.000 TS 35 0 15.0000 -114.000 TC 35 15.0000 -114.000 2 35 17 287
1977177N13251 1977 47 EP MM BERNICE 1977-06-26 15:00:00 TS 15.2742 -114.936 main 993 993 P________PP___ EP021977 15.2633 -114.987 TS 35 0 15.2633 -114.987 TC 35 15.3175 -114.732 2 36 19 289
1977177N13251 1977 47 EP MM BERNICE 1977-06-26 18:00:00 TS 15.6180 -115.812 35 hurdat_epa main 1018 1010 O________OP___ hurdat_epa EP021977 15.6000 -115.900 TS 35 0 15.6000 -115.900 TC 35 15.6902 -115.459 2 37 16 300
1977177N13251 1977 47 EP MM BERNICE 1977-06-26 21:00:00 TS 16.0519 -116.360 main 1013 1001 P________PP___ EP021977 16.0417 -116.410 TS 35 0 16.0417 -116.410 TC 35 16.0927 -116.157 2 38 13 313
1977177N13251 1977 47 EP MM BERNICE 1977-06-27 00:00:00 TS 16.5000 -116.800 35 hurdat_epa main 1009 1008 O________OO___ hurdat_epa EP021977 16.5000 -116.800 TS 35 0 16.5000 -116.800 TC 35 16.5000 -116.800 2 40 12 310
1977177N13251 1977 47 EP MM BERNICE 1977-06-27 03:00:00 TS 16.8599 -117.347 main 1015 1015 P________PP___ EP021977 16.8576 -117.350 TS 35 0 16.8576 -117.350 TC 35 16.8693 -117.335 2 38 13 304
1977177N13251 1977 47 EP MM BERNICE 1977-06-27 06:00:00 TS 17.2081 -117.883 35 hurdat_epa main 1032 1021 O________OP___ hurdat_epa EP021977 17.2000 -117.900 TS 35 0 17.2000 -117.900 TC 35 17.2403 -117.817 2 37 12 308
1977177N13251 1977 47 EP MM BERNICE 1977-06-27 09:00:00 TS 17.5969 -118.327 main 1021 1013 P________PP___ EP021977 17.5921 -118.335 TS 35 0 17.5921 -118.335 TC 35 17.6162 -118.291 2 36 12 312
1977177N13251 1977 47 EP MM BERNICE 1977-06-27 12:00:00 TS 18.0000 -118.800 35 hurdat_epa main 1020 1018 O________OO___ hurdat_epa EP021977 18.0000 -118.800 TS 35 0 18.0000 -118.800 TC 35 18.0000 -118.800 2 35 13 308
1977177N13251 1977 47 EP MM BERNICE 1977-06-27 15:00:00 TS 18.3987 -119.412 main 1031 1031 P________PP___ EP021977 18.4001 -119.420 TS 35 0 18.4001 -119.420 TC 35 18.3932 -119.378 2 33 15 303
1977177N13251 1977 47 EP MM BERNICE 1977-06-27 18:00:00 TS 18.7989 -120.087 35 hurdat_epa main 1055 1055 O________OP___ hurdat_epa EP021977 18.8000 -120.100 TS 35 0 18.8000 -120.100 TC 35 18.7932 -120.016 2 32 15 303
1977177N13251 1977 47 EP MM BERNICE 1977-06-27 21:00:00 TS 19.2262 -120.757 main 1084 1078 P________PP___ EP021977 19.2299 -120.765 TS 35 0 19.2299 -120.765 TC 35 19.1965 -120.697 2 31 15 303
1977177N13251 1977 47 EP MM BERNICE 1977-06-28 00:00:00 TS 19.6000 -121.400 35 hurdat_epa main 1109 1107 O________OO___ hurdat_epa EP021977 19.6000 -121.400 TS 35 0 19.6000 -121.400 TC 35 19.6000 -121.400 1 30 13 299
1977177N13251 1977 47 EP MM BERNICE 1977-06-28 03:00:00 TS 19.8523 -121.980 main 1124 1124 P________P____ EP021977 19.8523 -121.980 TS 30 -1 19.8523 -121.980 TC 30 1 11 291
1977177N13251 1977 47 EP MM BERNICE 1977-06-28 06:00:00 ET 20.0000 -122.500 25 hurdat_epa main 1148 1148 O________O____ hurdat_epa EP021977 20.0000 -122.500 ET 25 -4 20.0000 -122.500 25 1 10 283
1977177N13251 1977 47 EP MM BERNICE 1977-06-28 09:00:00 ET 20.0702 -122.965 main 1174 1174 P________P____ EP021977 20.0702 -122.965 ET 25 -4 20.0702 -122.965 25 1 9 277
1977177N13251 1977 47 EP MM BERNICE 1977-06-28 12:00:00 ET 20.1000 -123.400 25 hurdat_epa main 1203 O________O____ hurdat_epa EP021977 20.1000 -123.400 ET 25 -4 20.1000 -123.400 25 8 274

IBTrACS Databaseについて

本データベースは、米国NOAAが公開する1842年以降の世界の熱帯低気圧のベストトラックデータアーカイブInternational Best Track Archive for Climate Stewardship (IBTrACS)を、ウェブで閲覧しやすい形式に変換したものです。

最終更新日:2021-12-06